Observation data for White River Lake on 07/13/2020      Previous  Date  Next       Current Mesonet Observations  Soil Data  Daily Summary Page  Observations in Plain Language
KWVS 130500Z 16007KT 31/09 A2991 RMK A01 T03070086  RH  026%=      5-min Rain = 0
KWVS 130505Z 15006KT 30/09 A2992 RMK A01 T03040087  RH  027%=      5-min Rain = 0
KWVS 130510Z 15005KT 30/09 A2992 RMK A01 T03010087  RH  027%=      5-min Rain = 0
KWVS 130515Z 17005KT 30/09 A2992 RMK A01 T03000087  RH  027%=      5-min Rain = 0
KWVS 130520Z 17005KT 30/09 A2992 RMK A01 T03010086  RH  027%=      5-min Rain = 0
KWVS 130525Z 18005KT 30/09 A2992 RMK A01 T03000087  RH  027%=      5-min Rain = 0
KWVS 130530Z 19005KT 30/09 A2992 RMK A01 T02990087  RH  027%=      5-min Rain = 0
KWVS 130535Z 20004KT 30/09 A2992 RMK A01 T02980086  RH  027%=      5-min Rain = 0
KWVS 130540Z 18004KT 30/09 A2992 RMK A01 T02990085  RH  027%=      5-min Rain = 0
KWVS 130545Z 18003KT 30/09 A2992 RMK A01 T02980086  RH  027%=      5-min Rain = 0
KWVS 130550Z 21001KT 30/09 A2992 RMK A01 T02960087  RH  028%=      5-min Rain = 0
KWVS 130555Z 21000KT 29/09 A2992 RMK A01 T02920088  RH  029%=      5-min Rain = 0
KWVS 130600Z 19000KT 29/09 A2993 RMK A01 T02910086  RH  029%=      5-min Rain = 0
KWVS 130605Z 20000KT 29/09 A2993 RMK A01 T02920085  RH  028%=      5-min Rain = 0
KWVS 130610Z 19000KT 30/08 A2993 RMK A01 T02950084  RH  028%=      5-min Rain = 0
KWVS 130615Z 20002KT 30/08 A2993 RMK A01 T02950084  RH  028%=      5-min Rain = 0
KWVS 130620Z 21005KT 30/08 A2993 RMK A01 T02950083  RH  027%=      5-min Rain = 0
KWVS 130625Z 21006KT 29/09 A2992 RMK A01 T02920087  RH  028%=      5-min Rain = 0
KWVS 130630Z 22006KT 29/09 A2993 RMK A01 T02890087  RH  029%=      5-min Rain = 0
KWVS 130635Z 23005KT 29/09 A2993 RMK A01 T02880089  RH  030%=      5-min Rain = 0
KWVS 130640Z 24003KT 29/09 A2993 RMK A01 T02900085  RH  029%=      5-min Rain = 0
KWVS 130645Z 08002KT 29/09 A2993 RMK A01 T02850093  RH  031%=      5-min Rain = 0
KWVS 130650Z 07004KT 28/09 A2993 RMK A01 T02810088  RH  031%=      5-min Rain = 0
KWVS 130655Z 08004KT 28/09 A2992 RMK A01 T02840088  RH  030%=      5-min Rain = 0
KWVS 130700Z 10005KT 29/09 A2992 RMK A01 T02850086  RH  030%=      5-min Rain = 0
KWVS 130705Z 11004KT 29/09 A2993 RMK A01 T02870086  RH  029%=      5-min Rain = 0
KWVS 130710Z 11004KT 29/09 A2992 RMK A01 T02880087  RH  029%=      5-min Rain = 0
KWVS 130715Z 13004KT 29/09 A2992 RMK A01 T02860088  RH  030%=      5-min Rain = 0
KWVS 130720Z 15004KT 29/09 A2992 RMK A01 T02910085  RH  028%=      5-min Rain = 0
KWVS 130725Z 16004KT 29/08 A2992 RMK A01 T02940082  RH  027%=      5-min Rain = 0
KWVS 130730Z 17004KT 29/08 A2992 RMK A01 T02940084  RH  028%=      5-min Rain = 0
KWVS 130735Z 16005KT 29/09 A2992 RMK A01 T02890085  RH  029%=      5-min Rain = 0
KWVS 130740Z 15005KT 29/09 A2992 RMK A01 T02870085  RH  029%=      5-min Rain = 0
KWVS 130745Z 16005KT 29/09 A2992 RMK A01 T02850086  RH  030%=      5-min Rain = 0
KWVS 130750Z 18004KT 28/09 A2992 RMK A01 T02800090  RH  031%=      5-min Rain = 0
KWVS 130755Z 19004KT 28/09 A2992 RMK A01 T02760091  RH  032%=      5-min Rain = 0
KWVS 130800Z 24003KT 27/10 A2992 RMK A01 T02680100  RH  036%=      5-min Rain = 0
KWVS 130805Z 24004KT 26/10 A2992 RMK A01 T02640099  RH  037%=      5-min Rain = 0
KWVS 130810Z 23005KT 27/09 A2992 RMK A01 T02690093  RH  034%=      5-min Rain = 0
KWVS 130815Z 23005KT 27/09 A2992 RMK A01 T02730088  RH  032%=      5-min Rain = 0
KWVS 130820Z 24005KT 27/09 A2992 RMK A01 T02730088  RH  032%=      5-min Rain = 0
KWVS 130825Z 23005KT 27/09 A2992 RMK A01 T02720087  RH  032%=      5-min Rain = 0
KWVS 130830Z 24005KT 27/09 A2992 RMK A01 T02720085  RH  032%=      5-min Rain = 0
KWVS 130835Z 25005KT 27/08 A2993 RMK A01 T02720084  RH  032%=      5-min Rain = 0
KWVS 130840Z 24006KT 27/09 A2993 RMK A01 T02700085  RH  032%=      5-min Rain = 0
KWVS 130845Z 24006KT 27/08 A2993 RMK A01 T02670084  RH  032%=      5-min Rain = 0
KWVS 130850Z 25006KT 27/08 A2993 RMK A01 T02690080  RH  031%=      5-min Rain = 0
KWVS 130855Z 25006KT 27/08 A2993 RMK A01 T02710077  RH  030%=      5-min Rain = 0
KWVS 130900Z 26005KT 28/08 A2993 RMK A01 T02750077  RH  029%=      5-min Rain = 0
KWVS 130905Z 31003KT 27/09 A2993 RMK A01 T02690085  RH  032%=      5-min Rain = 0
KWVS 130910Z 32004KT 26/09 A2993 RMK A01 T02620086  RH  034%=      5-min Rain = 0
KWVS 130915Z 32005KT 26/09 A2993 RMK A01 T02580089  RH  035%=      5-min Rain = 0
KWVS 130920Z 28005KT 26/09 A2993 RMK A01 T02560087  RH  035%=      5-min Rain = 0
KWVS 130925Z 25007KT 27/08 A2993 RMK A01 T02660079  RH  031%=      5-min Rain = 0
KWVS 130930Z 28009KT 28/08 A2994 RMK A01 T02750075  RH  029%=      5-min Rain = 0
KWVS 130935Z 32013KT 26/09 A2995 RMK A01 T02610087  RH  034%=      5-min Rain = 0
KWVS 130940Z 32013KT 26/09 A2995 RMK A01 T02580086  RH  035%=      5-min Rain = 0
KWVS 130945Z 30009KT 26/08 A2995 RMK A01 T02600083  RH  033%=      5-min Rain = 0
KWVS 130950Z 27008G14KT 26/08 A2994 RMK A01 T02640077  RH  031%=      5-min Rain = 0
KWVS 130955Z 27010KT 27/08 A2994 RMK A01 T02690075  RH  030%=      5-min Rain = 0
KWVS 131000Z 29013KT 27/08 A2995 RMK A01 T02660077  RH  031%=      5-min Rain = 0
KWVS 131005Z 28012KT 27/07 A2995 RMK A01 T02710073  RH  029%=      5-min Rain = 0
KWVS 131010Z 28012KT 28/07 A2995 RMK A01 T02790071  RH  028%=      5-min Rain = 0
KWVS 131015Z 28010KT 28/07 A2995 RMK A01 T02820071  RH  027%=      5-min Rain = 0
KWVS 131020Z 30011KT 28/07 A2996 RMK A01 T02800072  RH  028%=      5-min Rain = 0
KWVS 131025Z 30012KT 28/07 A2996 RMK A01 T02800071  RH  027%=      5-min Rain = 0
KWVS 131030Z 29011KT 28/07 A2996 RMK A01 T02840071  RH  027%=      5-min Rain = 0
KWVS 131035Z 28011KT 29/07 A2996 RMK A01 T02850070  RH  026%=      5-min Rain = 0
KWVS 131040Z 28009KT 28/07 A2996 RMK A01 T02800071  RH  027%=      5-min Rain = 0
KWVS 131045Z 28008KT 28/07 A2996 RMK A01 T02760072  RH  028%=      5-min Rain = 0
KWVS 131050Z 28008KT 28/07 A2997 RMK A01 T02750072  RH  028%=      5-min Rain = 0
KWVS 131055Z 29010KT 28/07 A2997 RMK A01 T02750074  RH  029%=      5-min Rain = 0
KWVS 131100Z 29010KT 28/08 A2997 RMK A01 T02750076  RH  029%=      5-min Rain = 0
KWVS 131105Z 29010KT 28/08 A2997 RMK A01 T02750076  RH  029%=      5-min Rain = 0
KWVS 131110Z 28009KT 27/08 A2997 RMK A01 T02740077  RH  029%=      5-min Rain = 0
KWVS 131115Z 28008KT 28/08 A2997 RMK A01 T02760077  RH  029%=      5-min Rain = 0
KWVS 131120Z 29007KT 27/08 A2996 RMK A01 T02740078  RH  030%=      5-min Rain = 0
KWVS 131125Z 30008KT 27/08 A2997 RMK A01 T02690081  RH  031%=      5-min Rain = 0
KWVS 131130Z 30009KT 27/08 A2997 RMK A01 T02670081  RH  032%=      5-min Rain = 0
KWVS 131135Z 29009KT 27/08 A2997 RMK A01 T02720081  RH  031%=      5-min Rain = 0
KWVS 131140Z 28006KT 28/08 A2997 RMK A01 T02790082  RH  030%=      5-min Rain = 0
KWVS 131145Z 27006KT 28/08 A2997 RMK A01 T02780082  RH  030%=      5-min Rain = 0
KWVS 131150Z 25005KT 28/08 A2997 RMK A01 T02800084  RH  030%=      5-min Rain = 0
KWVS 131155Z 24004KT 28/08 A2997 RMK A01 T02800084  RH  030%=      5-min Rain = 0
KWVS 131200Z 22004KT 29/09 A2996 RMK A01 T02850085  RH  029%=      5-min Rain = 0
KWVS 131205Z 20007KT 29/09 A2995 RMK A01 T02850089  RH  030%=      5-min Rain = 0
KWVS 131210Z 19009KT 28/09 A2995 RMK A01 T02800091  RH  031%=      5-min Rain = 0
KWVS 131215Z 19010KT 28/09 A2994 RMK A01 T02790091  RH  032%=      5-min Rain = 0
KWVS 131220Z 20011G16KT 28/09 A2994 RMK A01 T02830091  RH  031%=      5-min Rain = 0
KWVS 131225Z 20010G16KT 28/09 A2994 RMK A01 T02790094  RH  032%=      5-min Rain = 0
KWVS 131230Z 20011KT 28/10 A2994 RMK A01 T02770095  RH  033%=      5-min Rain = 0
KWVS 131235Z 21012KT 28/09 A2993 RMK A01 T02830094  RH  032%=      5-min Rain = 0
KWVS 131240Z 22010KT 28/10 A2994 RMK A01 T02810095  RH  032%=      5-min Rain = 0
KWVS 131245Z 22011G17KT 28/09 A2994 RMK A01 T02820094  RH  032%=      5-min Rain = 0
KWVS 131250Z 22011KT 29/09 A2994 RMK A01 T02850094  RH  031%=      5-min Rain = 0
KWVS 131255Z 21011KT 29/10 A2994 RMK A01 T02860095  RH  031%=      5-min Rain = 0
KWVS 131300Z 21011KT 29/10 A2994 RMK A01 T02860095  RH  031%=      5-min Rain = 0
KWVS 131305Z 21010KT 29/10 A2994 RMK A01 T02850097  RH  032%=      5-min Rain = 0
KWVS 131310Z 21011KT 29/10 A2994 RMK A01 T02870098  RH  032%=      5-min Rain = 0
KWVS 131315Z 21011KT 29/10 A2994 RMK A01 T02920101  RH  031%=      5-min Rain = 0
KWVS 131320Z 21012G17KT 30/10 A2994 RMK A01 T02950097  RH  030%=      5-min Rain = 0
KWVS 131325Z 21012KT 30/10 A2994 RMK A01 T03000100  RH  030%=      5-min Rain = 0
KWVS 131330Z 21014KT 30/10 A2994 RMK A01 T03030099  RH  029%=      5-min Rain = 0
KWVS 131335Z 21012G17KT 30/10 A2994 RMK A01 T03000099  RH  030%=      5-min Rain = 0
KWVS 131340Z 21013KT 30/10 A2995 RMK A01 T02980099  RH  030%=      5-min Rain = 0
KWVS 131345Z 21012G17KT 30/10 A2995 RMK A01 T02970100  RH  030%=      5-min Rain = 0
KWVS 131350Z 21013KT 30/10 A2994 RMK A01 T02980100  RH  030%=      5-min Rain = 0
KWVS 131355Z 21013KT 30/10 A2994 RMK A01 T03030102  RH  030%=      5-min Rain = 0
KWVS 131400Z 21012G18KT 30/10 A2994 RMK A01 T03020102  RH  030%=      5-min Rain = 0
KWVS 131405Z 20013G19KT 30/10 A2994 RMK A01 T02970101  RH  031%=      5-min Rain = 0
KWVS 131410Z 20012KT 30/10 A2994 RMK A01 T03020104  RH  030%=      5-min Rain = 0
KWVS 131415Z 20014G19KT 31/11 A2994 RMK A01 T03070105  RH  030%=      5-min Rain = 0
KWVS 131420Z 20015G20KT 31/11 A2993 RMK A01 T03070106  RH  030%=      5-min Rain = 0
KWVS 131425Z 20016G22KT 31/11 A2993 RMK A01 T03050105  RH  030%=      5-min Rain = 0
KWVS 131430Z 20016G22KT 31/11 A2993 RMK A01 T03090106  RH  029%=      5-min Rain = 0
KWVS 131435Z 20014G20KT 31/11 A2993 RMK A01 T03120108  RH  030%=      5-min Rain = 0
KWVS 131440Z 20012KT 32/11 A2994 RMK A01 T03170113  RH  030%=      5-min Rain = 0
KWVS 131445Z 20014G19KT 32/11 A2994 RMK A01 T03170111  RH  029%=      5-min Rain = 0
KWVS 131450Z 20016KT 32/11 A2994 RMK A01 T03170111  RH  029%=      5-min Rain = 0
KWVS 131455Z 20013G18KT 31/11 A2993 RMK A01 T03100110  RH  030%=      5-min Rain = 0
KWVS 131500Z 19015G22KT 31/11 A2993 RMK A01 T03090108  RH  030%=      5-min Rain = 0
KWVS 131505Z 19010KT 31/11 A2993 RMK A01 T03110113  RH  031%=      5-min Rain = 0
KWVS 131510Z 19012G19KT 33/12 A2993 RMK A01 T03250116  RH  029%=      5-min Rain = 0
KWVS 131515Z 18011KT 33/12 A2993 RMK A01 T03340116  RH  028%=      5-min Rain = 0
KWVS 131520Z 19014G20KT 34/12 A2993 RMK A01 T03360116  RH  027%=      5-min Rain = 0
KWVS 131525Z 19014G19KT 34/12 A2993 RMK A01 T03380116  RH  027%=      5-min Rain = 0
KWVS 131530Z 19014G19KT 34/12 A2992 RMK A01 T03400117  RH  027%=      5-min Rain = 0
KWVS 131535Z 19015G20KT 34/12 A2992 RMK A01 T03420117  RH  026%=      5-min Rain = 0
KWVS 131540Z 19014KT 34/12 A2992 RMK A01 T03440118  RH  026%=      5-min Rain = 0
KWVS 131545Z 19016KT 35/12 A2992 RMK A01 T03490116  RH  025%=      5-min Rain = 0
KWVS 131550Z 20017G25KT 35/11 A2992 RMK A01 T03530112  RH  024%=      5-min Rain = 0
KWVS 131555Z 20020G25KT 36/10 A2992 RMK A01 T03590099  RH  021%=      5-min Rain = 0
KWVS 131600Z 20020G28KT 36/10 A2991 RMK A01 T03630098  RH  021%=      5-min Rain = 0
KWVS 131605Z 20021KT 36/09 A2991 RMK A01 T03620093  RH  020%=      5-min Rain = 0
KWVS 131610Z 20021G28KT 36/10 A2991 RMK A01 T03630096  RH  020%=      5-min Rain = 0
KWVS 131615Z 21023G30KT 36/09 A2991 RMK A01 T03630092  RH  020%=      5-min Rain = 0
KWVS 131620Z 21018G26KT 37/10 A2991 RMK A01 T03650097  RH  020%=      5-min Rain = 0
KWVS 131625Z 20021G27KT 37/09 A2991 RMK A01 T03680094  RH  020%=      5-min Rain = 0
KWVS 131630Z 20023G29KT 37/09 A2991 RMK A01 T03680086  RH  019%=      5-min Rain = 0
KWVS 131635Z 20020G26KT 37/09 A2991 RMK A01 T03700089  RH  019%=      5-min Rain = 0
KWVS 131640Z 20018G24KT 37/09 A2991 RMK A01 T03740090  RH  018%=      5-min Rain = 0
KWVS 131645Z 20018G24KT 38/09 A2991 RMK A01 T03760093  RH  019%=      5-min Rain = 0
KWVS 131650Z 19017G22KT 38/09 A2991 RMK A01 T03790094  RH  018%=      5-min Rain = 0
KWVS 131655Z 19020G26KT 38/09 A2991 RMK A01 T03780089  RH  018%=      5-min Rain = 0
KWVS 131700Z 18021G27KT 38/09 A2991 RMK A01 T03810086  RH  017%=      5-min Rain = 0
KWVS 131705Z 20021G28KT 38/08 A2991 RMK A01 T03830084  RH  017%=      5-min Rain = 0
KWVS 131710Z 21019G26KT 38/08 A2991 RMK A01 T03830084  RH  017%=      5-min Rain = 0
KWVS 131715Z 20019G25KT 39/08 A2991 RMK A01 T03850081  RH  016%=      5-min Rain = 0
KWVS 131720Z 20022G29KT 38/07 A299 RMK A01 T03830067  RH  015%=      5-min Rain = 0
KWVS 131725Z 20019G24KT 39/08 A299 RMK A01 T03850075  RH  016%=      5-min Rain = 0
KWVS 131730Z 21021G29KT 39/08 A299 RMK A01 T03890075  RH  015%=      5-min Rain = 0
KWVS 131735Z 20018G26KT 40/09 A299 RMK A01 T03970085  RH  016%=      5-min Rain = 0
KWVS 131740Z 20022G31KT 39/08 A299 RMK A01 T03920078  RH  015%=      5-min Rain = 0
KWVS 131745Z 20020G27KT 39/08 A299 RMK A01 T03930077  RH  015%=      5-min Rain = 0
KWVS 131750Z 21021G26KT 39/08 A299 RMK A01 T03910077  RH  015%=      5-min Rain = 0
KWVS 131755Z 21020G27KT 39/08 A299 RMK A01 T03890080  RH  016%=      5-min Rain = 0
KWVS 131800Z 20022G30KT 39/08 A2989 RMK A01 T03900081  RH  016%=      5-min Rain = 0
KWVS 131805Z 21019G29KT 39/09 A2989 RMK A01 T03910085  RH  016%=      5-min Rain = 0
KWVS 131810Z 20021G29KT 39/09 A2989 RMK A01 T03930086  RH  016%=      5-min Rain = 0
KWVS 131815Z 19020G28KT 40/09 A2989 RMK A01 T03960087  RH  016%=      5-min Rain = 0
KWVS 131820Z 19023G28KT 40/09 A2988 RMK A01 T03950086  RH  016%=      5-min Rain = 0
KWVS 131825Z 20023G29KT 39/08 A2988 RMK A01 T03940083  RH  016%=      5-min Rain = 0
KWVS 131830Z 20019G27KT 40/09 A2988 RMK A01 T03990088  RH  016%=      5-min Rain = 0
KWVS 131835Z 20021G28KT 40/08 A2988 RMK A01 T03980084  RH  016%=      5-min Rain = 0
KWVS 131840Z 20020G30KT 40/09 A2988 RMK A01 T03990085  RH  016%=      5-min Rain = 0
KWVS 131845Z 21022G30KT 40/09 A2988 RMK A01 T03960085  RH  016%=      5-min Rain = 0
KWVS 131850Z 19020G28KT 40/09 A2988 RMK A01 T03960085  RH  016%=      5-min Rain = 0
KWVS 131855Z 20018G27KT 40/09 A2988 RMK A01 T04010087  RH  016%=      5-min Rain = 0
KWVS 131900Z 21017G26KT 41/09 A2988 RMK A01 T04050092  RH  016%=      5-min Rain = 0
KWVS 131905Z 20017G27KT 41/09 A2988 RMK A01 T04100094  RH  016%=      5-min Rain = 0
KWVS 131910Z 21021G28KT 40/08 A2987 RMK A01 T04020083  RH  015%=      5-min Rain = 0
KWVS 131915Z 19018G23KT 40/09 A2987 RMK A01 T04030089  RH  016%=      5-min Rain = 0
KWVS 131920Z 21019G25KT 41/09 A2987 RMK A01 T04050086  RH  015%=      5-min Rain = 0
KWVS 131925Z 20020G26KT 40/09 A2987 RMK A01 T04030087  RH  015%=      5-min Rain = 0
KWVS 131930Z 20019G25KT 41/09 A2986 RMK A01 T04050087  RH  015%=      5-min Rain = 0
KWVS 131935Z 20020G27KT 41/09 A2986 RMK A01 T04080085  RH  015%=      5-min Rain = 0
KWVS 131940Z 21016G23KT 41/09 A2986 RMK A01 T04070088  RH  015%=      5-min Rain = 0
KWVS 131945Z 20020G26KT 41/09 A2986 RMK A01 T04100087  RH  015%=      5-min Rain = 0
KWVS 131950Z 20019G29KT 41/08 A2985 RMK A01 T04100080  RH  014%=      5-min Rain = 0
KWVS 131955Z 21020G27KT 41/07 A2985 RMK A01 T04120074  RH  013%=      5-min Rain = 0
KWVS 132000Z 21019G26KT 41/07 A2985 RMK A01 T04120074  RH  013%=      5-min Rain = 0
KWVS 132005Z 21019G26KT 41/07 A2985 RMK A01 T04120071  RH  013%=      5-min Rain = 0
KWVS 132010Z 20018KT 41/07 A2985 RMK A01 T04130072  RH  013%=      5-min Rain = 0
KWVS 132015Z 20019G24KT 41/07 A2984 RMK A01 T04140073  RH  013%=      5-min Rain = 0
KWVS 132020Z 19017G22KT 42/08 A2984 RMK A01 T04170075  RH  013%=      5-min Rain = 0
KWVS 132025Z 20020G26KT 42/07 A2984 RMK A01 T04150074  RH  013%=      5-min Rain = 0
KWVS 132030Z 20017G22KT 42/07 A2984 RMK A01 T04160071  RH  013%=      5-min Rain = 0
KWVS 132035Z 21017G27KT 42/08 A2984 RMK A01 T04200076  RH  013%=      5-min Rain = 0
KWVS 132040Z 20017G26KT 42/07 A2984 RMK A01 T04180072  RH  013%=      5-min Rain = 0
KWVS 132045Z 20016G22KT 42/07 A2983 RMK A01 T04190072  RH  013%=      5-min Rain = 0
KWVS 132050Z 20017G24KT 42/07 A2983 RMK A01 T04190073  RH  013%=      5-min Rain = 0
KWVS 132055Z 20015G23KT 42/07 A2983 RMK A01 T04190072  RH  013%=      5-min Rain = 0
KWVS 132100Z 20019G25KT 42/07 A2983 RMK A01 T04200071  RH  013%=      5-min Rain = 0
KWVS 132105Z 19020G27KT 42/07 A2983 RMK A01 T04200070  RH  013%=      5-min Rain = 0
KWVS 132110Z 20016G22KT 42/07 A2983 RMK A01 T04190071  RH  013%=      5-min Rain = 0
KWVS 132115Z 18016G23KT 43/07 A2982 RMK A01 T04250072  RH  012%=      5-min Rain = 0
KWVS 132120Z 19021G28KT 42/07 A2982 RMK A01 T04240067  RH  012%=      5-min Rain = 0
KWVS 132125Z 19018G24KT 42/07 A2982 RMK A01 T04210066  RH  012%=      5-min Rain = 0
KWVS 132130Z 21018G27KT 42/07 A2982 RMK A01 T04220066  RH  012%=      5-min Rain = 0
KWVS 132135Z 19017G22KT 42/07 A2981 RMK A01 T04230067  RH  012%=      5-min Rain = 0
KWVS 132140Z 19019G25KT 42/06 A2981 RMK A01 T04220063  RH  012%=      5-min Rain = 0
KWVS 132145Z 21018G26KT 42/06 A2981 RMK A01 T04210063  RH  012%=      5-min Rain = 0
KWVS 132150Z 22016G24KT 42/07 A2981 RMK A01 T04210067  RH  012%=      5-min Rain = 0
KWVS 132155Z 19014G20KT 42/07 A2981 RMK A01 T04220065  RH  012%=      5-min Rain = 0
KWVS 132200Z 19015G22KT 43/07 A2981 RMK A01 T04260067  RH  012%=      5-min Rain = 0
KWVS 132205Z 20019G26KT 42/06 A2981 RMK A01 T04230062  RH  012%=      5-min Rain = 0
KWVS 132210Z 20016G23KT 42/07 A2981 RMK A01 T04240065  RH  012%=      5-min Rain = 0
KWVS 132215Z 18018G24KT 42/06 A298 RMK A01 T04230060  RH  012%=      5-min Rain = 0
KWVS 132220Z 20019G25KT 42/06 A298 RMK A01 T04210059  RH  012%=      5-min Rain = 0
KWVS 132225Z 21016G21KT 42/07 A298 RMK A01 T04230065  RH  012%=      5-min Rain = 0
KWVS 132230Z 20018G23KT 42/06 A298 RMK A01 T04220061  RH  012%=      5-min Rain = 0
KWVS 132235Z 18019KT 42/06 A298 RMK A01 T04210061  RH  012%=      5-min Rain = 0
KWVS 132240Z 18019G26KT 42/06 A2979 RMK A01 T04220061  RH  012%=      5-min Rain = 0
KWVS 132245Z 19017G22KT 42/06 A2979 RMK A01 T04210060  RH  012%=      5-min Rain = 0
KWVS 132250Z 19017G22KT 42/06 A2979 RMK A01 T04220061  RH  012%=      5-min Rain = 0
KWVS 132255Z 19016G22KT 42/06 A2979 RMK A01 T04220063  RH  012%=      5-min Rain = 0
KWVS 132300Z 19018G26KT 42/06 A2979 RMK A01 T04210064  RH  012%=      5-min Rain = 0
KWVS 132305Z 20017G23KT 42/07 A2978 RMK A01 T04230068  RH  012%=      5-min Rain = 0
KWVS 132310Z 18020G26KT 42/07 A2978 RMK A01 T04220065  RH  012%=      5-min Rain = 0
KWVS 132315Z 18018G23KT 42/07 A2978 RMK A01 T04210066  RH  012%=      5-min Rain = 0
KWVS 132320Z 19019G25KT 42/07 A2978 RMK A01 T04200067  RH  012%=      5-min Rain = 0
KWVS 132325Z 18018G26KT 42/06 A2978 RMK A01 T04180064  RH  012%=      5-min Rain = 0
KWVS 132330Z 18018G24KT 42/06 A2978 RMK A01 T04190062  RH  012%=      5-min Rain = 0
KWVS 132335Z 20017G23KT 42/06 A2978 RMK A01 T04180061  RH  012%=      5-min Rain = 0
KWVS 132340Z 21016G21KT 42/06 A2978 RMK A01 T04180059  RH  012%=      5-min Rain = 0
KWVS 132345Z 19014G20KT 42/06 A2977 RMK A01 T04190063  RH  012%=      5-min Rain = 0
KWVS 132350Z 19018G25KT 42/06 A2977 RMK A01 T04170059  RH  012%=      5-min Rain = 0
KWVS 132355Z 19019G25KT 42/06 A2977 RMK A01 T04160058  RH  012%=      5-min Rain = 0
KWVS 140000Z 19019KT 41/06 A2977 RMK A01 T04140056  RH  012%=      5-min Rain = 0
KWVS 140005Z 18015G20KT 42/06 A2977 RMK A01 T04150060  RH  012%=      5-min Rain = 0
KWVS 140010Z 19017G24KT 41/06 A2977 RMK A01 T04140060  RH  012%=      5-min Rain = 0
KWVS 140015Z 19018G24KT 41/06 A2977 RMK A01 T04130061  RH  012%=      5-min Rain = 0
KWVS 140020Z 18017G23KT 41/06 A2977 RMK A01 T04120063  RH  012%=      5-min Rain = 0
KWVS 140025Z 19017G22KT 41/06 A2977 RMK A01 T04110060  RH  012%=      5-min Rain = 0
KWVS 140030Z 19017G23KT 41/06 A2977 RMK A01 T04100058  RH  012%=      5-min Rain = 0
KWVS 140035Z 19019G24KT 41/06 A2977 RMK A01 T04090059  RH  012%=      5-min Rain = 0
KWVS 140040Z 19018G24KT 41/06 A2977 RMK A01 T04080058  RH  012%=      5-min Rain = 0
KWVS 140045Z 19019KT 41/06 A2977 RMK A01 T04070057  RH  012%=      5-min Rain = 0
KWVS 140050Z 18017G22KT 41/06 A2977 RMK A01 T04060056  RH  012%=      5-min Rain = 0
KWVS 140055Z 18017G25KT 40/06 A2977 RMK A01 T04040056  RH  012%=      5-min Rain = 0
KWVS 140100Z 18016KT 40/06 A2977 RMK A01 T04030055  RH  012%=      5-min Rain = 0
KWVS 140105Z 18016KT 40/06 A2977 RMK A01 T04000056  RH  013%=      5-min Rain = 0
KWVS 140110Z 18014KT 40/06 A2977 RMK A01 T03960056  RH  013%=      5-min Rain = 0
KWVS 140115Z 18014KT 39/05 A2977 RMK A01 T03940054  RH  013%=      5-min Rain = 0
KWVS 140120Z 18015KT 39/05 A2977 RMK A01 T03920054  RH  013%=      5-min Rain = 0
KWVS 140125Z 18014KT 39/06 A2977 RMK A01 T03900055  RH  013%=      5-min Rain = 0
KWVS 140130Z 18012KT 39/06 A2977 RMK A01 T03870057  RH  014%=      5-min Rain = 0
KWVS 140135Z 17013G18KT 38/06 A2977 RMK A01 T03830058  RH  014%=      5-min Rain = 0
KWVS 140140Z 17013KT 38/06 A2977 RMK A01 T03820059  RH  014%=      5-min Rain = 0
KWVS 140145Z 17013KT 38/06 A2977 RMK A01 T03800060  RH  014%=      5-min Rain = 0
KWVS 140150Z 18012KT 38/06 A2977 RMK A01 T03770061  RH  015%=      5-min Rain = 0
KWVS 140155Z 17012KT 37/06 A2977 RMK A01 T03740061  RH  015%=      5-min Rain = 0
KWVS 140200Z 17012G17KT 37/06 A2978 RMK A01 T03720061  RH  015%=      5-min Rain = 0
KWVS 140205Z 18012KT 37/06 A2978 RMK A01 T03700060  RH  015%=      5-min Rain = 0
KWVS 140210Z 18013KT 37/06 A2978 RMK A01 T03690060  RH  015%=      5-min Rain = 0
KWVS 140215Z 18013KT 37/06 A2978 RMK A01 T03680060  RH  015%=      5-min Rain = 0
KWVS 140220Z 18013KT 37/06 A2978 RMK A01 T03680059  RH  015%=      5-min Rain = 0
KWVS 140225Z 18012KT 36/06 A2978 RMK A01 T03640060  RH  016%=      5-min Rain = 0
KWVS 140230Z 18012KT 36/06 A2978 RMK A01 T03620059  RH  016%=      5-min Rain = 0
KWVS 140235Z 18012KT 36/06 A2978 RMK A01 T03620059  RH  016%=      5-min Rain = 0
KWVS 140240Z 18012KT 36/06 A2978 RMK A01 T03620059  RH  016%=      5-min Rain = 0
KWVS 140245Z 18011KT 36/06 A2979 RMK A01 T03600059  RH  016%=      5-min Rain = 0
KWVS 140250Z 18010KT 36/06 A2979 RMK A01 T03570060  RH  016%=      5-min Rain = 0
KWVS 140255Z 18011KT 36/06 A2979 RMK A01 T03560059  RH  016%=      5-min Rain = 0
KWVS 140300Z 18011KT 36/06 A2979 RMK A01 T03560059  RH  016%=      5-min Rain = 0
KWVS 140305Z 18010KT 36/06 A298 RMK A01 T03550060  RH  017%=      5-min Rain = 0
KWVS 140310Z 18010KT 35/06 A298 RMK A01 T03520059  RH  017%=      5-min Rain = 0
KWVS 140315Z 18011KT 35/06 A298 RMK A01 T03520059  RH  017%=      5-min Rain = 0
KWVS 140320Z 17011KT 35/06 A298 RMK A01 T03500059  RH  017%=      5-min Rain = 0
KWVS 140325Z 18012KT 35/06 A298 RMK A01 T03500058  RH  017%=      5-min Rain = 0
KWVS 140330Z 18011KT 35/06 A298 RMK A01 T03490058  RH  017%=      5-min Rain = 0
KWVS 140335Z 18011KT 35/06 A2981 RMK A01 T03460059  RH  017%=      5-min Rain = 0
KWVS 140340Z 18010KT 34/06 A2981 RMK A01 T03430059  RH  018%=      5-min Rain = 0
KWVS 140345Z 18011KT 34/06 A2981 RMK A01 T03420058  RH  018%=      5-min Rain = 0
KWVS 140350Z 18012KT 34/06 A2982 RMK A01 T03420059  RH  018%=      5-min Rain = 0
KWVS 140355Z 18010KT 34/06 A2982 RMK A01 T03390059  RH  018%=      5-min Rain = 0
KWVS 140400Z 18010KT 34/06 A2982 RMK A01 T03350059  RH  018%=      5-min Rain = 0
KWVS 140405Z 18010KT 33/06 A2982 RMK A01 T03320060  RH  019%=      5-min Rain = 0
KWVS 140410Z 18011KT 33/06 A2982 RMK A01 T03320059  RH  019%=      5-min Rain = 0
KWVS 140415Z 18011KT 33/06 A2982 RMK A01 T03310058  RH  019%=      5-min Rain = 0
KWVS 140420Z 19011KT 33/06 A2983 RMK A01 T03310057  RH  019%=      5-min Rain = 0
KWVS 140425Z 19010KT 33/06 A2983 RMK A01 T03280058  RH  019%=      5-min Rain = 0
KWVS 140430Z 19008KT 32/06 A2983 RMK A01 T03240059  RH  019%=      5-min Rain = 0
KWVS 140435Z 19009KT 32/06 A2983 RMK A01 T03210059  RH  020%=      5-min Rain = 0
KWVS 140440Z 19010KT 32/06 A2983 RMK A01 T03210058  RH  020%=      5-min Rain = 0
KWVS 140445Z 18011KT 33/06 A2983 RMK A01 T03250057  RH  019%=      5-min Rain = 0
KWVS 140450Z 18011KT 33/06 A2983 RMK A01 T03250057  RH  019%=      5-min Rain = 0
KWVS 140455Z 18011KT 32/06 A2983 RMK A01 T03230058  RH  019%=      5-min Rain = 0

Page generated in 0.0094 seconds.